createdAt,value
2022-08-02T00:00:50.455Z,2.88
2022-08-02T00:03:22.215Z,2.47
2022-08-02T00:05:53.717Z,3.33
2022-08-02T00:08:20.877Z,2.90
2022-08-02T00:10:47.396Z,3.33
2022-08-02T00:13:13.810Z,3.15
2022-08-02T00:15:43.093Z,2.85
2022-08-02T00:18:09.476Z,3.05
2022-08-02T00:20:35.960Z,3.75
2022-08-02T00:23:02.336Z,3.22
2022-08-02T00:25:28.829Z,3.17
2022-08-02T00:27:55.202Z,3.70
2022-08-02T00:30:21.606Z,3.13
2022-08-02T00:32:48.015Z,3.67
2022-08-02T00:35:14.436Z,3.03
2022-08-02T00:37:41.725Z,3.20
2022-08-02T00:40:09.421Z,3.22
2022-08-02T00:42:35.807Z,3.83
2022-08-02T00:45:02.300Z,3.20
2022-08-02T00:47:28.793Z,3.13
2022-08-02T00:49:55.311Z,2.75
2022-08-02T00:52:22.748Z,3.60
2022-08-02T00:54:49.628Z,3.72
2022-08-02T00:57:16.366Z,3.65
2022-08-02T00:59:42.745Z,3.10
2022-08-02T01:02:09.946Z,3.10
2022-08-02T01:04:36.613Z,3.25
2022-08-02T01:07:12.855Z,3.80
2022-08-02T01:09:43.706Z,3.15
2022-08-02T01:12:10.998Z,3.45
2022-08-02T01:14:37.863Z,3.20
2022-08-02T01:17:09.992Z,4.20
2022-08-02T01:19:55.546Z,3.92
2022-08-02T01:22:59.571Z,3.33
2022-08-02T01:25:36.209Z,3.15
2022-08-02T01:28:09.236Z,3.38
2022-08-02T01:30:35.996Z,3.50
2022-08-02T01:33:06.712Z,3.50
2022-08-02T01:35:50.486Z,3.08
2022-08-02T01:38:29.386Z,3.92
2022-08-02T01:40:56.625Z,3.75
2022-08-02T01:43:23.518Z,4.13
2022-08-02T01:45:50.840Z,3.00
2022-08-02T01:48:17.993Z,2.83
2022-08-02T01:50:44.835Z,3.15
2022-08-02T01:53:12.504Z,3.67
2022-08-02T01:55:57.524Z,4.88
2022-08-02T01:58:27.142Z,4.03
2022-08-02T02:00:53.858Z,3.83
2022-08-02T02:03:21.482Z,3.85
2022-08-02T02:05:48.645Z,3.72
2022-08-02T02:08:16.447Z,3.35
2022-08-02T02:10:55.037Z,3.53
2022-08-02T02:13:21.560Z,4.47
2022-08-02T02:16:04.501Z,3.40
2022-08-02T02:18:34.282Z,4.68
2022-08-02T02:21:00.755Z,4.20
2022-08-02T02:23:27.630Z,3.72
2022-08-02T02:26:01.251Z,3.97
2022-08-02T02:28:31.240Z,4.57
2022-08-02T02:31:06.882Z,3.35
2022-08-02T02:33:35.264Z,3.97
2022-08-02T02:36:03.761Z,2.70
2022-08-02T02:38:31.802Z,3.47
2022-08-02T02:40:59.418Z,3.08
2022-08-02T02:43:28.018Z,3.33
2022-08-02T02:45:56.021Z,3.72
2022-08-02T02:48:22.915Z,3.80
2022-08-02T02:50:50.162Z,3.15
2022-08-02T02:53:18.252Z,3.40
2022-08-02T02:56:02.073Z,3.42
2022-08-02T02:58:29.513Z,4.07
2022-08-02T03:01:14.704Z,3.47
2022-08-02T03:03:43.171Z,3.10
2022-08-02T03:06:15.703Z,4.25
2022-08-02T03:08:42.807Z,3.65
2022-08-02T03:11:09.947Z,3.95
2022-08-02T03:13:37.564Z,3.30
2022-08-02T03:16:08.847Z,3.63
2022-08-02T03:18:38.651Z,3.25
2022-08-02T03:21:06.341Z,3.75
2022-08-02T03:23:35.901Z,3.20
2022-08-02T03:26:02.943Z,3.63
2022-08-02T03:28:29.397Z,3.38
2022-08-02T03:30:55.961Z,3.80
2022-08-02T03:33:22.872Z,3.10
2022-08-02T03:35:50.671Z,3.08
2022-08-02T03:38:18.778Z,3.40
2022-08-02T03:40:46.122Z,2.90
2022-08-02T03:43:13.070Z,2.97
2022-08-02T03:45:40.212Z,3.33
2022-08-02T03:48:33.756Z,2.75
2022-08-02T03:50:55.529Z,3.38
2022-08-02T03:53:24.932Z,3.25
2022-08-02T03:55:51.857Z,3.35
2022-08-02T03:58:22.473Z,2.97
2022-08-02T04:00:49.078Z,2.70
2022-08-02T04:03:20.177Z,3.97
2022-08-02T04:06:03.354Z,3.20
2022-08-02T04:08:37.171Z,3.70
2022-08-02T04:11:31.379Z,3.00
2022-08-02T04:13:59.085Z,3.50
2022-08-02T04:16:46.447Z,3.65
2022-08-02T04:19:28.180Z,3.75
2022-08-02T04:21:55.612Z,3.35
2022-08-02T04:24:32.237Z,2.90
2022-08-02T04:27:06.714Z,3.67
2022-08-02T04:29:47.088Z,2.78
2022-08-02T04:32:14.810Z,3.33
2022-08-02T04:34:44.876Z,3.08
2022-08-02T04:37:16.880Z,3.25
2022-08-02T04:39:43.513Z,2.75
2022-08-02T04:42:10.481Z,3.13
2022-08-02T04:44:37.112Z,2.97
2022-08-02T04:47:06.830Z,3.03
2022-08-02T04:49:33.931Z,2.80
2022-08-02T04:52:01.045Z,2.95
2022-08-02T04:54:27.616Z,2.72
2022-08-02T04:56:54.057Z,2.75
2022-08-02T04:59:23.475Z,3.60
2022-08-02T05:01:49.900Z,3.03
2022-08-02T05:04:16.327Z,2.40
2022-08-02T05:06:42.740Z,2.88
2022-08-02T05:09:11.606Z,2.67
2022-08-02T05:11:38.358Z,3.03
2022-08-02T05:14:05.748Z,2.50
2022-08-02T05:16:32.609Z,2.78
2022-08-02T05:18:59.796Z,2.55
2022-08-02T05:21:26.393Z,2.88
2022-08-02T05:23:52.863Z,2.55
2022-08-02T05:26:19.312Z,3.00
2022-08-02T05:28:45.764Z,2.03
2022-08-02T05:31:12.549Z,2.90
2022-08-02T05:33:44.496Z,2.28
2022-08-02T05:36:10.959Z,2.05
2022-08-02T05:38:37.926Z,2.10
2022-08-02T05:41:04.880Z,2.05
2022-08-02T05:43:31.396Z,2.95
2022-08-02T05:45:57.901Z,2.10
2022-08-02T05:48:29.101Z,1.98
2022-08-02T05:51:02.814Z,2.67
2022-08-02T05:53:47.681Z,2.70
2022-08-02T05:56:24.315Z,2.20
2022-08-02T05:58:53.776Z,1.85
2022-08-02T06:01:26.691Z,2.00
2022-08-02T06:03:54.149Z,2.30
2022-08-02T06:06:23.356Z,2.85
2022-08-02T06:09:00.019Z,1.58
2022-08-02T06:11:36.698Z,1.63
2022-08-02T06:14:04.320Z,2.08
2022-08-02T06:16:31.711Z,2.15
2022-08-02T06:19:00.181Z,1.98
2022-08-02T06:22:35.918Z,1.90
2022-08-02T06:24:13.781Z,1.95
2022-08-02T06:26:42.863Z,2.13
2022-08-02T06:29:09.478Z,2.40
2022-08-02T06:31:37.018Z,3.03
2022-08-02T06:34:03.472Z,1.67
2022-08-02T06:36:48.593Z,2.10
2022-08-02T06:39:19.852Z,1.50
2022-08-02T06:41:49.102Z,1.48
2022-08-02T06:47:10.817Z,1.65
2022-08-02T06:49:51.446Z,1.83
2022-08-02T06:52:22.300Z,1.70
2022-08-02T06:54:51.971Z,1.55
2022-08-02T06:57:18.354Z,1.60
2022-08-02T06:59:44.901Z,2.28
2022-08-02T07:02:12.015Z,1.30
2022-08-02T07:04:38.806Z,2.30
2022-08-02T07:07:05.432Z,1.70
2022-08-02T07:09:31.821Z,1.70
2022-08-02T07:11:58.194Z,1.55
2022-08-02T07:14:24.585Z,2.08
2022-08-02T07:16:54.034Z,1.50
2022-08-02T07:19:20.458Z,2.17
2022-08-02T07:21:57.124Z,1.30
2022-08-02T07:24:26.025Z,1.70
2022-08-02T07:27:10.814Z,1.52
2022-08-02T07:29:45.216Z,2.40
2022-08-02T07:32:14.086Z,1.40
2022-08-02T07:34:42.638Z,1.92
2022-08-02T07:37:25.629Z,1.52
2022-08-02T07:39:57.333Z,1.70
2022-08-02T07:42:24.698Z,1.65
2022-08-02T07:44:51.233Z,1.70
2022-08-02T07:47:17.931Z,1.52
2022-08-02T07:49:44.576Z,2.33
2022-08-02T07:52:11.196Z,1.65
2022-08-02T07:54:37.838Z,1.63
2022-08-02T08:41:46.812Z,2.47
2022-08-02T08:44:13.250Z,1.65
2022-08-02T08:46:42.529Z,1.52
2022-08-02T08:49:25.673Z,1.63
2022-08-02T08:51:54.900Z,1.58
2022-08-02T08:54:25.666Z,1.60
2022-08-02T08:56:52.481Z,1.75
2022-08-02T08:59:19.041Z,1.75
2022-08-02T09:01:50.110Z,1.45
2022-08-02T09:04:17.635Z,1.95
2022-08-02T09:06:44.046Z,1.33
2022-08-02T09:09:10.473Z,1.23
2022-08-02T09:11:40.046Z,1.35
2022-08-02T09:14:06.434Z,1.20
2022-08-02T09:16:33.193Z,1.30
2022-08-02T09:19:00.381Z,1.60
2022-08-02T09:21:38.639Z,1.00
2022-08-02T09:24:15.079Z,1.83
2022-08-02T09:26:41.708Z,1.38
2022-08-02T09:29:08.234Z,1.08
2022-08-02T09:31:35.675Z,1.33
2022-08-02T09:34:02.239Z,1.30
2022-08-02T09:36:37.227Z,1.40
2022-08-02T09:39:04.877Z,0.90
2022-08-02T09:41:32.234Z,1.05
2022-08-02T09:44:05.495Z,0.98
2022-08-02T09:46:36.219Z,0.93
2022-08-02T09:49:04.357Z,1.37
2022-08-02T09:51:32.016Z,1.08
2022-08-02T09:54:08.307Z,0.93
2022-08-02T09:56:41.940Z,1.15
2022-08-02T09:59:08.534Z,1.15
2022-08-02T10:01:37.023Z,0.80
2022-08-02T10:04:04.855Z,1.20
2022-08-02T10:06:32.092Z,1.10
2022-08-02T10:08:58.531Z,1.10
2022-08-02T10:11:26.183Z,0.90
2022-08-02T10:13:52.976Z,1.67
2022-08-02T10:16:23.426Z,0.98
2022-08-02T10:18:51.155Z,0.98
2022-08-02T10:21:32.312Z,0.95
2022-08-02T10:24:04.605Z,1.02
2022-08-02T10:26:31.513Z,0.90
2022-08-02T10:28:57.978Z,1.10
2022-08-02T10:31:27.132Z,0.90
2022-08-02T10:33:55.889Z,1.08
2022-08-02T10:36:23.784Z,0.98
2022-08-02T10:38:50.345Z,1.20
2022-08-02T10:41:36.717Z,1.20
2022-08-02T10:44:03.288Z,0.90
2022-08-02T10:46:34.137Z,0.80
2022-08-02T10:51:49.323Z,0.70
2022-08-02T10:54:22.265Z,1.10
2022-08-02T10:56:49.564Z,1.00
2022-08-02T10:59:23.714Z,1.17
2022-08-02T11:02:01.104Z,1.00
2022-08-02T11:04:36.639Z,1.00
2022-08-02T11:07:07.134Z,1.20
2022-08-02T11:09:33.861Z,1.60
2022-08-02T11:12:03.492Z,1.30
2022-08-02T11:14:30.555Z,1.08
2022-08-02T11:16:56.970Z,1.40
2022-08-02T11:19:24.012Z,1.10
2022-08-02T11:22:11.641Z,1.63
2022-08-02T11:24:38.929Z,1.10
2022-08-02T11:27:06.197Z,1.60
2022-08-02T11:29:32.711Z,1.20
2022-08-02T11:32:05.647Z,1.48
2022-08-02T11:34:36.863Z,1.40
2022-08-02T11:37:04.380Z,1.10
2022-08-02T11:39:30.821Z,1.30
2022-08-02T11:41:58.800Z,1.55
2022-08-02T11:44:28.882Z,1.17
2022-08-02T11:46:59.324Z,1.70
2022-08-02T11:49:26.105Z,1.60
2022-08-02T11:51:54.245Z,1.10
2022-08-02T11:54:32.910Z,1.48
2022-08-02T11:57:19.373Z,1.15
2022-08-02T11:59:50.701Z,1.00
2022-08-02T12:02:17.565Z,1.20
2022-08-02T12:04:51.628Z,1.63
2022-08-02T12:07:18.999Z,1.30
2022-08-02T12:10:12.055Z,1.15
2022-08-02T12:12:48.871Z,1.25
2022-08-02T12:15:15.563Z,0.97
2022-08-02T12:18:05.397Z,1.30
2022-08-02T12:20:36.174Z,1.15
2022-08-02T12:23:03.044Z,1.85
2022-08-02T12:25:34.675Z,1.10
2022-08-02T12:28:18.621Z,1.63
2022-08-02T12:30:55.425Z,1.25
2022-08-02T12:33:23.063Z,1.40
2022-08-02T12:35:49.597Z,1.50
2022-08-02T12:38:16.048Z,1.40
2022-08-02T12:40:42.966Z,1.90
2022-08-02T12:43:17.020Z,1.38
2022-08-02T12:45:49.187Z,1.92
2022-08-02T12:48:17.443Z,1.83
2022-08-02T12:50:44.342Z,1.60
2022-08-02T12:53:15.497Z,2.17
2022-08-02T12:55:59.246Z,1.48
2022-08-02T12:58:29.162Z,1.90
2022-08-02T13:00:59.410Z,2.03
2022-08-02T13:04:10.372Z,1.98
2022-08-02T13:06:39.570Z,1.35
2022-08-02T13:08:59.019Z,1.60
2022-08-02T13:11:25.745Z,1.65
2022-08-02T13:13:52.170Z,1.95
2022-08-02T13:16:18.654Z,1.55
2022-08-02T13:18:57.374Z,1.58
2022-08-02T13:21:40.751Z,1.30
2022-08-02T13:24:32.752Z,1.30
2022-08-02T13:26:55.519Z,1.42
2022-08-02T13:29:22.143Z,1.20
2022-08-02T13:31:48.543Z,1.75
2022-08-02T13:34:16.655Z,1.25
2022-08-02T13:36:43.155Z,2.33
2022-08-02T13:39:10.424Z,1.88
2022-08-02T13:41:36.850Z,1.65
2022-08-02T13:44:09.842Z,1.85
2022-08-02T13:46:45.670Z,1.55
2022-08-02T13:49:17.878Z,1.50
2022-08-02T13:51:45.197Z,1.50
2022-08-02T13:54:11.613Z,1.08
2022-08-02T13:56:38.025Z,1.50
2022-08-02T13:59:54.304Z,1.15
2022-08-02T14:01:52.090Z,1.27
2022-08-02T14:04:18.587Z,1.48
2022-08-02T14:06:45.065Z,1.48
2022-08-02T14:09:15.716Z,1.25
2022-08-02T14:11:43.636Z,1.20
2022-08-02T14:14:16.295Z,1.20
2022-08-02T14:16:43.399Z,1.20
2022-08-02T14:19:15.578Z,1.23
2022-08-02T14:21:46.419Z,1.40
2022-08-02T14:24:13.747Z,1.80
2022-08-02T14:26:40.124Z,1.60
2022-08-02T14:29:06.604Z,1.25
2022-08-02T14:31:33.068Z,1.50
2022-08-02T14:33:59.589Z,1.20
2022-08-02T14:36:27.429Z,1.13
2022-08-02T14:38:55.040Z,1.20
2022-08-02T14:41:21.437Z,1.10
2022-08-02T14:44:07.171Z,1.30
2022-08-02T14:46:38.261Z,1.55
2022-08-02T14:49:05.277Z,1.20
2022-08-02T14:51:31.949Z,1.10
2022-08-02T14:54:02.505Z,1.23
2022-08-02T14:56:30.428Z,1.30
2022-08-02T14:58:56.890Z,1.48
2022-08-02T15:01:26.237Z,1.20
2022-08-02T15:03:53.095Z,1.60
2022-08-02T15:06:19.722Z,1.25
2022-08-02T15:08:46.135Z,1.20
2022-08-02T15:11:12.602Z,1.75
2022-08-02T15:13:42.712Z,1.23
2022-08-02T15:16:09.461Z,1.50
2022-08-02T15:18:35.933Z,1.10
2022-08-02T15:21:05.136Z,1.88
2022-08-02T15:23:51.954Z,1.65
2022-08-02T15:26:20.780Z,1.60
2022-08-02T15:28:48.132Z,1.80
2022-08-02T15:31:30.749Z,1.20
2022-08-02T15:33:59.474Z,1.40
2022-08-02T15:36:25.906Z,1.30
2022-08-02T15:38:52.374Z,1.70
2022-08-02T15:41:21.897Z,1.42
2022-08-02T15:43:59.995Z,1.30
2022-08-02T15:46:30.701Z,2.47
2022-08-02T15:51:25.055Z,1.83
2022-08-02T15:53:54.535Z,1.27
2022-08-02T15:56:24.075Z,1.30
2022-08-02T15:58:53.970Z,1.85
2022-08-02T16:01:22.560Z,1.38
2022-08-02T16:03:49.165Z,1.77
2022-08-02T16:06:15.803Z,1.40
2022-08-02T16:08:53.231Z,1.83
2022-08-02T16:11:20.957Z,1.70
2022-08-02T16:13:53.494Z,1.48
2022-08-02T16:16:21.714Z,2.13
2022-08-02T16:18:48.145Z,1.60
2022-08-02T16:21:14.740Z,1.63
2022-08-02T16:24:01.715Z,2.20
2022-08-02T16:26:29.541Z,1.88
2022-08-02T16:28:56.935Z,1.60
2022-08-02T16:31:23.936Z,1.80
2022-08-02T16:33:50.493Z,1.90
2022-08-02T16:36:23.605Z,1.92
2022-08-02T16:38:49.988Z,2.13
2022-08-02T16:41:16.515Z,1.98
2022-08-02T16:43:42.964Z,1.70
2022-08-02T16:46:09.963Z,2.08
2022-08-02T16:48:36.638Z,2.20
2022-08-02T16:51:03.133Z,1.80
2022-08-02T16:53:37.306Z,2.35
2022-08-02T16:56:18.224Z,2.72
2022-08-02T16:58:47.667Z,2.20
2022-08-02T17:01:14.673Z,1.98
2022-08-02T17:03:55.896Z,2.47
2022-08-02T17:06:26.219Z,2.28
2022-08-02T17:08:56.168Z,2.20
2022-08-02T17:11:23.854Z,2.33
2022-08-02T17:13:51.177Z,2.13
2022-08-02T17:16:20.733Z,2.50
2022-08-02T17:18:53.833Z,2.45
2022-08-02T17:21:20.438Z,2.38
2022-08-02T17:24:05.993Z,1.95
2022-08-02T17:26:33.600Z,2.85
2022-08-02T17:29:18.145Z,2.20
2022-08-02T17:32:04.872Z,2.30
2022-08-02T17:34:32.006Z,2.13
2022-08-02T17:36:59.876Z,2.33
2022-08-02T17:42:15.381Z,2.33
2022-08-02T17:44:49.229Z,1.67
2022-08-02T17:47:16.204Z,2.10
2022-08-02T17:49:48.603Z,2.63
2022-08-02T17:52:51.362Z,2.00
2022-08-02T17:55:07.274Z,1.85
2022-08-02T17:57:56.305Z,1.70
2022-08-02T18:00:20.572Z,1.95
2022-08-02T18:02:52.613Z,1.75
2022-08-02T18:05:21.455Z,1.85
2022-08-02T18:07:53.006Z,1.85
2022-08-02T18:10:23.275Z,2.45
2022-08-02T18:12:49.800Z,2.03
2022-08-02T18:15:16.315Z,2.25
2022-08-02T18:17:46.519Z,2.03
2022-08-02T18:20:13.021Z,1.92
2022-08-02T18:22:43.123Z,2.03
2022-08-02T18:27:58.363Z,3.65
2022-08-02T18:30:28.508Z,2.38
2022-08-02T18:34:00.625Z,2.30
2022-08-02T18:35:42.599Z,2.10
2022-08-02T18:38:11.584Z,1.70
2022-08-02T18:40:38.646Z,1.83
2022-08-02T18:43:07.156Z,2.33
2022-08-02T18:46:01.571Z,2.30
2022-08-02T18:48:20.718Z,2.10
2022-08-02T18:50:48.306Z,2.10
2022-08-02T18:53:16.783Z,2.00
2022-08-02T18:56:06.315Z,3.17
2022-08-02T18:58:35.573Z,2.35
2022-08-02T19:01:05.395Z,2.45
2022-08-02T19:03:49.277Z,2.20
2022-08-02T19:06:19.855Z,2.65
2022-08-02T19:08:47.324Z,2.05
2022-08-02T19:11:34.941Z,2.75
2022-08-02T19:14:01.637Z,3.05
2022-08-02T19:16:37.080Z,2.30
2022-08-02T19:19:04.974Z,2.50
2022-08-02T19:22:18.910Z,2.38
2022-08-02T19:24:19.446Z,3.03
2022-08-02T19:26:50.987Z,1.90
2022-08-02T19:29:25.077Z,2.30
2022-08-02T19:32:06.375Z,2.00
2022-08-02T19:34:52.776Z,2.35
2022-08-02T19:37:19.177Z,2.63
2022-08-02T19:39:45.881Z,2.80
2022-08-02T19:42:12.595Z,1.92
2022-08-02T19:44:43.213Z,2.33
2022-08-02T19:47:19.280Z,2.33
2022-08-02T19:49:46.059Z,2.30
2022-08-02T19:52:21.398Z,1.92
2022-08-02T19:54:55.804Z,2.10
2022-08-02T19:57:23.478Z,1.80
2022-08-02T19:59:52.179Z,1.73
2022-08-02T20:02:19.214Z,1.45
2022-08-02T20:04:50.327Z,1.98
2022-08-02T20:07:53.392Z,1.73
2022-08-02T20:10:11.336Z,1.45
2022-08-02T20:12:38.567Z,1.38
2022-08-02T20:15:07.722Z,1.30
2022-08-02T20:17:41.040Z,1.80
2022-08-02T20:20:13.989Z,1.30
2022-08-02T20:23:01.253Z,1.60
2022-08-02T20:25:48.203Z,1.30
2022-08-02T20:28:14.654Z,1.52
2022-08-02T20:30:41.228Z,1.20
2022-08-02T20:33:21.627Z,1.10
2022-08-02T20:35:48.981Z,1.23
2022-08-02T20:38:16.413Z,1.05
2022-08-02T20:40:43.428Z,1.00
2022-08-02T20:43:10.342Z,0.70
2022-08-02T20:45:36.777Z,0.80
2022-08-02T20:48:03.234Z,0.60
2022-08-02T20:50:49.253Z,1.30
2022-08-02T20:53:23.562Z,1.00
2022-08-02T20:55:52.986Z,0.98
2022-08-02T20:58:19.406Z,0.80
2022-08-02T21:00:46.150Z,1.20
2022-08-02T21:03:14.348Z,0.70
2022-08-02T21:05:54.211Z,0.90
2022-08-02T21:08:23.412Z,0.80
2022-08-02T21:10:52.569Z,0.90
2022-08-02T21:13:23.071Z,1.02
2022-08-02T21:15:50.086Z,0.77
2022-08-02T21:18:24.164Z,1.10
2022-08-02T21:21:02.936Z,0.90
2022-08-02T21:23:29.457Z,1.00
2022-08-02T21:25:59.964Z,1.20
2022-08-02T21:28:35.027Z,0.90
2022-08-02T21:31:10.540Z,1.00
2022-08-02T21:33:57.936Z,1.60
2022-08-02T21:36:31.385Z,1.10
2022-08-02T21:38:58.823Z,1.10
2022-08-02T21:41:38.995Z,1.05
2022-08-02T21:44:11.718Z,1.25
2022-08-02T21:46:38.126Z,1.40
2022-08-02T21:49:05.291Z,1.25
2022-08-02T21:51:34.218Z,1.50
2022-08-02T21:54:17.836Z,1.38
2022-08-02T21:56:46.538Z,1.55
2022-08-02T21:59:16.311Z,1.52
2022-08-02T22:01:52.344Z,2.17
2022-08-02T22:04:19.667Z,1.90
2022-08-02T22:06:46.831Z,2.15
2022-08-02T22:09:17.324Z,1.88
2022-08-02T22:11:44.618Z,2.00
2022-08-02T22:14:13.294Z,1.70
2022-08-02T22:16:39.673Z,1.88
2022-08-02T22:19:06.678Z,2.13
2022-08-02T22:21:46.598Z,1.85
2022-08-02T22:24:19.720Z,2.40
2022-08-02T22:26:56.759Z,3.10
2022-08-02T22:29:23.229Z,3.25
2022-08-02T22:31:50.919Z,3.60
2022-08-02T22:34:36.710Z,3.60
2022-08-02T22:37:05.745Z,3.47
2022-08-02T22:39:33.872Z,3.97
2022-08-02T22:42:05.344Z,4.47
2022-08-02T22:44:33.922Z,5.15
2022-08-02T22:47:07.255Z,5.78
2022-08-02T22:49:51.636Z,5.10
2022-08-02T22:52:21.410Z,5.25
2022-08-02T22:54:48.010Z,5.20
2022-08-02T22:57:14.397Z,5.75
2022-08-02T22:58:44.222Z,2.03
2022-08-02T22:58:49.136Z,2.35
2022-08-02T22:59:41.425Z,6.15
2022-08-02T23:02:08.727Z,6.68
2022-08-02T23:04:36.527Z,7.68
2022-08-02T23:07:02.963Z,7.28
2022-08-02T23:09:29.450Z,8.77
2022-08-02T23:11:55.875Z,7.80
2022-08-02T23:14:22.260Z,9.45
2022-08-02T23:17:08.298Z,9.45
2022-08-02T23:19:52.773Z,9.85
2022-08-02T23:22:21.849Z,10.48
2022-08-02T23:24:56.348Z,11.07
2022-08-02T23:27:22.768Z,11.10
2022-08-02T23:29:49.171Z,11.27
2022-08-02T23:32:15.854Z,11.70
2022-08-02T23:34:43.139Z,13.65
2022-08-02T23:37:09.605Z,12.35
2022-08-02T23:39:36.406Z,11.98
2022-08-02T23:42:03.765Z,11.75
2022-08-02T23:44:30.247Z,12.43
2022-08-02T23:46:57.181Z,12.20
2022-08-02T23:49:23.997Z,12.32
2022-08-02T23:51:51.011Z,13.27
2022-08-02T23:54:17.456Z,12.07
2022-08-02T23:56:43.941Z,12.63
2022-08-02T23:59:10.390Z,11.57
